Time;durP1;ratioP1;P1;durP2;ratioP2;P2;SDS_P1;SDS_P2;PMS_P1;PMS_P2;Temp;Humidity;BMP_temperature;BMP_pressure;BME280_temperature;BME280_humidity;BME280_pressure;Samples;Min_cycle;Max_cycle;Signal;HPM_P1;HPM_P2
2021/05/07 07:32:55;;;;;;;8.38;2.60;;;10.10;99.90;;;;;;5254245;23;20047;-85
2021/05/07 07:35:21;;;;;;;4.72;2.25;;;10.20;99.90;;;;;;4950612;28;20047;-86
2021/05/07 07:37:48;;;;;;;7.65;2.40;;;10.30;99.90;;;;;;4952186;29;20172;-85
2021/05/07 07:40:14;;;;;;;4.88;2.38;;;10.30;99.90;;;;;;4953438;28;20059;-85
2021/05/07 07:42:41;;;;;;;6.15;2.58;;;10.40;99.90;;;;;;4950754;29;20391;-86
2021/05/07 07:45:09;;;;;;;4.25;2.33;;;10.40;99.90;;;;;;4950251;28;20051;-85
2021/05/07 07:47:36;;;;;;;6.75;2.33;;;10.60;99.90;;;;;;4953213;28;20048;-85
2021/05/07 07:50:08;;;;;;;7.15;2.58;;;10.70;99.90;;;;;;4951859;29;20497;-85
2021/05/07 07:52:37;;;;;;;4.90;1.95;;;10.80;99.90;;;;;;4952093;29;20493;-85
2021/05/07 07:55:05;;;;;;;5.35;2.42;;;10.90;99.90;;;;;;4952835;28;20064;-85
2021/05/07 07:57:31;;;;;;;6.63;2.38;;;11.10;99.90;;;;;;4947370;29;20379;-85
2021/05/07 07:59:58;;;;;;;5.10;2.13;;;11.20;99.90;;;;;;4951826;28;20044;-85
2021/05/07 08:02:29;;;;;;;7.78;2.42;;;11.20;99.90;;;;;;4952480;28;20047;-86
2021/05/07 08:04:55;;;;;;;7.47;2.08;;;11.30;99.90;;;;;;4952874;28;20047;-85
2021/05/07 08:07:22;;;;;;;3.42;2.10;;;11.40;99.90;;;;;;4951750;28;20051;-87
2021/05/07 08:09:50;;;;;;;4.93;1.98;;;11.50;99.90;;;;;;4950433;29;20047;-86
2021/05/07 08:12:17;;;;;;;6.72;2.20;;;11.60;99.90;;;;;;4952335;28;20113;-86
2021/05/07 08:14:43;;;;;;;8.50;2.72;;;11.70;99.90;;;;;;4950670;29;20055;-85
2021/05/07 08:17:09;;;;;;;5.88;2.40;;;11.80;99.90;;;;;;4951018;28;20048;-85
2021/05/07 08:19:41;;;;;;;6.45;2.40;;;11.90;99.90;;;;;;4948480;28;20552;-85
2021/05/07 08:22:07;;;;;;;6.05;2.50;;;11.90;99.90;;;;;;4951182;28;20139;-85
2021/05/07 08:24:34;;;;;;;5.55;2.20;;;11.90;99.90;;;;;;4952261;28;20086;-86
2021/05/07 08:27:00;;;;;;;6.68;2.15;;;12.00;99.90;;;;;;4952557;28;20094;-87
2021/05/07 08:29:27;;;;;;;4.25;1.95;;;12.10;99.90;;;;;;4949805;28;20574;-86
2021/05/07 08:31:54;;;;;;;6.38;2.05;;;12.10;99.90;;;;;;4949595;28;20051;-85
2021/05/07 08:34:21;;;;;;;5.38;1.98;;;12.20;99.90;;;;;;4935675;29;20114;-85
2021/05/07 08:36:48;;;;;;;5.60;2.17;;;12.30;99.90;;;;;;4936398;29;20503;-85
2021/05/07 08:39:15;;;;;;;4.88;2.20;;;12.40;99.90;;;;;;4934595;29;20060;-85
2021/05/07 08:41:50;;;;;;;6.32;2.22;;;12.60;99.90;;;;;;4933537;29;20043;-85
2021/05/07 08:44:18;;;;;;;5.60;2.30;;;12.70;99.90;;;;;;4921697;29;20107;-84
2021/05/07 08:46:45;;;;;;;4.82;2.20;;;12.80;99.90;;;;;;4938866;29;20051;-86
2021/05/07 08:49:16;;;;;;;5.28;2.60;;;12.90;99.90;;;;;;4938510;29;20047;-86
2021/05/07 08:51:42;;;;;;;4.80;2.17;;;13.00;99.90;;;;;;4938514;29;20055;-85
2021/05/07 08:54:09;;;;;;;6.35;2.42;;;13.10;99.90;;;;;;4938993;29;20051;-86
2021/05/07 08:56:37;;;;;;;5.43;2.00;;;13.20;99.90;;;;;;4938666;29;20410;-87
2021/05/07 08:59:04;;;;;;;6.77;1.90;;;13.30;99.90;;;;;;4936088;29;20059;-86
2021/05/07 09:01:51;;;;;;;5.63;2.05;;;13.40;99.90;;;;;;4941114;29;20779;-86
2021/05/07 09:04:20;;;;;;;7.30;1.83;;;13.60;99.90;;;;;;4939893;29;20451;-87
2021/05/07 09:06:52;;;;;;;9.68;2.72;;;13.70;99.90;;;;;;4938191;29;20415;-84
2021/05/07 09:09:26;;;;;;;3.28;1.33;;;13.80;99.90;;;;;;4938864;29;20130;-86
2021/05/07 09:12:02;;;;;;;4.20;1.42;;;13.90;99.90;;;;;;4938072;29;20074;-87
2021/05/07 09:14:29;;;;;;;4.20;1.27;;;14.00;99.90;;;;;;4936882;29;20054;-85
2021/05/07 09:17:19;;;;;;;6.63;1.75;;;14.00;99.90;;;;;;4919789;29;20126;-85
2021/05/07 09:19:47;;;;;;;4.65;1.80;;;14.00;99.90;;;;;;4937658;29;20511;-87
2021/05/07 09:22:24;;;;;;;4.85;1.95;;;14.10;99.90;;;;;;4938256;29;20380;-85
2021/05/07 09:25:01;;;;;;;4.47;1.65;;;14.10;99.50;;;;;;4937807;29;20550;-87
2021/05/07 09:27:27;;;;;;;4.43;1.58;;;14.20;99.40;;;;;;4937366;29;20111;-85
2021/05/07 09:29:54;;;;;;;5.22;1.60;;;14.30;99.10;;;;;;4938770;29;20469;-86
2021/05/07 09:32:31;;;;;;;6.45;1.77;;;14.20;98.50;;;;;;4935118;29;20474;-85
2021/05/07 09:35:11;;;;;;;4.60;1.88;;;14.30;98.30;;;;;;4934821;29;20051;-85
2021/05/07 09:37:38;;;;;;;;;;;14.30;98.40;;;;;;4947933;28;20035;-90
2021/05/07 09:40:12;;;;;;;5.75;1.35;;;14.30;97.70;;;;;;4937885;29;19926;-85
2021/05/07 09:42:39;;;;;;;3.45;1.02;;;14.30;98.00;;;;;;4937190;29;20048;-86
2021/05/07 09:45:17;;;;;;;5.35;1.15;;;14.40;98.00;;;;;;4937984;29;20059;-84
2021/05/07 09:47:44;;;;;;;3.70;1.30;;;14.40;98.00;;;;;;4938865;29;20418;-85
2021/05/07 09:50:11;;;;;;;4.47;1.27;;;14.50;97.80;;;;;;4934173;29;20301;-84
2021/05/07 09:52:38;;;;;;;3.95;1.30;;;14.60;97.70;;;;;;4947442;28;20890;-85
2021/05/07 09:55:04;;;;;;;3.97;1.20;;;14.60;97.50;;;;;;4937925;29;20087;-84
2021/05/07 09:57:31;;;;;;;4.75;1.45;;;14.70;97.10;;;;;;4937341;29;20202;-84
2021/05/07 10:00:01;;;;;;;3.15;1.15;;;14.80;97.20;;;;;;4935863;29;20143;-84
2021/05/07 10:02:27;;;;;;;4.18;0.95;;;14.80;97.00;;;;;;4934686;29;20043;-84
2021/05/07 10:04:53;;;;;;;5.55;1.25;;;14.80;96.70;;;;;;4935212;29;20115;-87
2021/05/07 10:07:20;;;;;;;3.55;1.13;;;14.90;96.80;;;;;;4936158;29;20059;-85
2021/05/07 10:09:47;;;;;;;4.57;1.23;;;15.00;96.70;;;;;;4938129;29;20134;-86
2021/05/07 10:12:17;;;;;;;2.33;0.80;;;15.10;96.90;;;;;;4937590;29;20039;-85
2021/05/07 10:14:46;;;;;;;2.97;1.27;;;15.20;96.90;;;;;;4936962;29;20445;-85
2021/05/07 10:17:13;;;;;;;4.18;1.05;;;15.30;97.00;;;;;;4932612;29;20483;-84
2021/05/07 10:19:44;;;;;;;3.50;1.10;;;15.30;96.80;;;;;;4939762;29;20131;-86
2021/05/07 10:22:26;;;;;;;6.13;1.17;;;15.30;96.80;;;;;;4937983;29;20059;-84
2021/05/07 10:24:53;;;;;;;2.60;1.20;;;15.30;96.80;;;;;;4936663;29;20442;-86
2021/05/07 10:27:22;;;;;;;3.60;1.10;;;15.30;96.80;;;;;;4936179;29;20047;-85
2021/05/07 10:29:59;;;;;;;4.05;1.40;;;15.40;96.90;;;;;;4936911;29;20074;-85
2021/05/07 10:32:37;;;;;;;4.00;1.58;;;15.40;96.90;;;;;;4934176;29;20079;-83
2021/05/07 10:35:05;;;;;;;4.47;1.33;;;15.50;97.00;;;;;;4932971;29;20510;-86
2021/05/07 10:37:41;;;;;;;3.55;1.13;;;15.40;96.80;;;;;;4938011;29;20403;-85
2021/05/07 10:40:10;;;;;;;5.80;1.35;;;15.50;97.00;;;;;;4936244;29;20051;-85
2021/05/07 10:42:36;;;;;;;5.15;1.75;;;15.50;96.90;;;;;;4936170;29;20098;-85
2021/05/07 10:45:03;;;;;;;3.40;1.08;;;15.60;97.00;;;;;;4937394;29;20047;-88
2021/05/07 10:47:35;;;;;;;2.97;1.13;;;15.70;97.00;;;;;;4933739;29;20040;-85
2021/05/07 10:50:18;;;;;;;3.95;1.08;;;15.70;96.60;;;;;;4932928;29;20514;-86
2021/05/07 10:52:44;;;;;;;4.35;1.33;;;15.70;96.80;;;;;;4961472;28;20050;-87
2021/05/07 10:55:11;;;;;;;5.38;1.40;;;15.80;97.10;;;;;;4936201;29;20047;-85
2021/05/07 10:57:39;;;;;;;2.95;1.27;;;15.80;97.20;;;;;;4936157;29;20043;-85
2021/05/07 11:00:16;;;;;;;5.35;1.55;;;15.70;97.30;;;;;;4936296;29;20103;-87
2021/05/07 11:02:52;;;;;;;3.22;1.40;;;15.70;97.40;;;;;;4935813;29;20073;-88
2021/05/07 11:05:48;;;;;;;7.00;1.90;;;15.60;97.50;;;;;;4916532;29;20143;-85
2021/05/07 11:08:15;;;;;;;6.07;1.65;;;15.50;97.40;;;;;;4919544;29;20059;-85
2021/05/07 11:10:42;;;;;;;4.45;1.55;;;15.40;97.80;;;;;;4937935;29;20051;-83
2021/05/07 11:13:10;;;;;;;3.03;1.30;;;15.30;97.90;;;;;;4941469;29;20050;-88
2021/05/07 11:15:37;;;;;;;4.20;1.45;;;15.30;97.90;;;;;;4924809;29;20087;-84
2021/05/07 11:18:11;;;;;;;6.88;1.67;;;15.30;98.00;;;;;;4925561;29;20055;-86
2021/05/07 11:20:39;;;;;;;3.20;1.40;;;15.20;98.00;;;;;;4916310;29;20452;-85
2021/05/07 11:23:11;;;;;;;7.35;1.30;;;15.20;98.10;;;;;;4919674;29;20048;-83
2021/05/07 11:25:38;;;;;;;7.35;1.52;;;15.10;98.10;;;;;;4929473;29;20059;-85
2021/05/07 11:28:20;;;;;;;5.82;1.33;;;15.10;98.20;;;;;;4932782;29;20048;-86
2021/05/07 11:30:54;;;;;;;3.83;1.20;;;15.10;98.30;;;;;;4932604;29;20047;-86
2021/05/07 11:33:24;;;;;;;6.60;1.30;;;15.20;98.40;;;;;;4931866;29;20135;-84
2021/05/07 11:36:12;;;;;;;2.50;1.20;;;15.30;98.50;;;;;;4931382;29;20122;-87
2021/05/07 11:38:39;;;;;;;6.28;1.30;;;15.40;98.20;;;;;;4929603;29;20119;-83
2021/05/07 11:41:20;;;;;;;3.28;1.20;;;15.40;98.10;;;;;;4932138;29;20056;-86
2021/05/07 11:43:49;;;;;;;2.90;1.30;;;15.50;98.10;;;;;;4930845;29;20099;-86
2021/05/07 11:46:16;;;;;;;5.47;1.60;;;15.50;98.10;;;;;;4932153;29;20063;-87
2021/05/07 11:48:52;;;;;;;4.05;1.23;;;15.50;98.20;;;;;;4931244;29;20063;-85
2021/05/07 11:51:21;;;;;;;2.63;0.98;;;15.60;97.90;;;;;;4931996;29;20472;-85
2021/05/07 11:53:57;;;;;;;4.85;1.30;;;15.60;97.80;;;;;;4932169;29;20083;-85
2021/05/07 11:56:24;;;;;;;5.88;1.45;;;15.60;97.70;;;;;;4930894;29;20048;-83
2021/05/07 11:58:52;;;;;;;4.80;1.52;;;15.50;97.80;;;;;;4931943;29;20071;-85
2021/05/07 12:01:20;;;;;;;5.20;1.50;;;15.60;98.00;;;;;;4933603;29;20515;-87
2021/05/07 12:03:48;;;;;;;5.82;1.63;;;15.60;98.00;;;;;;4939530;29;20054;-88
2021/05/07 12:06:25;;;;;;;5.95;1.13;;;15.60;97.70;;;;;;4943149;28;20062;-86
2021/05/07 12:08:53;;;;;;;5.38;1.20;;;15.70;97.90;;;;;;4935245;29;20048;-87
2021/05/07 12:11:19;;;;;;;2.42;1.15;;;15.70;97.70;;;;;;4932810;29;20043;-82
2021/05/07 12:13:47;;;;;;;3.38;1.25;;;15.60;97.50;;;;;;4935592;29;20040;-84
2021/05/07 12:16:14;;;;;;;2.60;1.10;;;15.60;97.70;;;;;;4936038;29;20054;-87
2021/05/07 12:18:49;;;;;;;6.05;1.45;;;15.60;97.70;;;;;;4939001;29;20111;-84
2021/05/07 12:21:15;;;;;;;5.75;1.45;;;15.70;97.70;;;;;;4938396;29;20537;-88
2021/05/07 12:23:46;;;;;;;3.85;1.38;;;15.70;97.70;;;;;;4940041;29;20043;-88
2021/05/07 12:26:14;;;;;;;4.47;1.30;;;15.80;97.70;;;;;;4918452;29;20483;-89
2021/05/07 12:28:52;;;;;;;5.82;1.23;;;15.90;97.60;;;;;;4940715;29;20051;-83
2021/05/07 12:31:27;;;;;;;4.27;1.10;;;15.90;97.40;;;;;;4939357;29;20582;-88
2021/05/07 12:33:53;;;;;;;5.53;1.25;;;16.00;97.20;;;;;;4940208;29;20299;-87
2021/05/07 12:36:20;;;;;;;4.35;1.25;;;16.00;96.90;;;;;;4936830;29;20530;-86
2021/05/07 12:38:46;;;;;;;5.75;1.40;;;16.00;96.90;;;;;;4940040;29;20376;-87
2021/05/07 12:41:19;;;;;;;4.28;1.88;;;16.00;97.00;;;;;;4934273;29;20084;-86
2021/05/07 12:43:49;;;;;;;3.45;1.40;;;16.10;96.60;;;;;;4939993;29;20099;-88
2021/05/07 12:46:17;;;;;;;5.93;1.58;;;16.10;96.60;;;;;;4939105;29;20111;-88
2021/05/07 12:48:54;;;;;;;3.00;1.25;;;16.10;96.60;;;;;;4938576;29;20079;-84
2021/05/07 12:51:21;;;;;;;2.60;0.95;;;16.10;96.60;;;;;;4937843;29;20055;-85
2021/05/07 12:53:49;;;;;;;2.92;1.20;;;16.10;96.40;;;;;;4939463;29;20519;-87
2021/05/07 12:56:16;;;;;;;3.60;1.20;;;16.00;96.60;;;;;;4934168;29;20052;-87
2021/05/07 12:58:44;;;;;;;4.20;1.30;;;16.00;96.60;;;;;;4940694;29;20107;-84
2021/05/07 13:01:11;;;;;;;2.60;1.00;;;16.00;96.60;;;;;;4938150;29;20515;-88
2021/05/07 13:03:38;;;;;;;4.63;1.40;;;16.00;96.70;;;;;;4938393;29;20339;-87
2021/05/07 13:06:05;;;;;;;3.03;1.20;;;16.10;96.90;;;;;;4937609;29;20064;-87
2021/05/07 13:08:32;;;;;;;4.07;1.48;;;16.10;97.00;;;;;;4936336;29;20043;-87
2021/05/07 13:10:58;;;;;;;2.58;1.02;;;16.20;96.90;;;;;;4935627;29;20051;-85
2021/05/07 13:13:24;;;;;;;3.15;1.50;;;16.20;96.60;;;;;;4939524;29;20107;-84
2021/05/07 13:15:51;;;;;;;3.90;1.13;;;16.20;96.20;;;;;;4937931;29;20054;-83
2021/05/07 13:18:17;;;;;;;2.55;1.27;;;16.20;96.20;;;;;;4938790;29;20074;-87
2021/05/07 13:20:44;;;;;;;3.85;1.13;;;16.10;96.20;;;;;;4938012;29;20409;-87
2021/05/07 13:23:11;;;;;;;2.50;1.15;;;16.00;96.30;;;;;;4918629;29;20053;-88
2021/05/07 13:25:38;;;;;;;4.85;1.02;;;16.00;96.40;;;;;;4941224;29;20046;-86
2021/05/07 13:28:04;;;;;;;2.88;0.98;;;16.00;96.60;;;;;;4937934;29;20055;-86
2021/05/07 13:30:31;;;;;;;3.97;1.35;;;16.00;96.80;;;;;;4938809;29;20232;-87
2021/05/07 13:32:58;;;;;;;1.95;1.00;;;16.00;96.80;;;;;;4937611;29;20063;-87
2021/05/07 13:35:25;;;;;;;3.80;1.00;;;16.00;96.30;;;;;;4935966;29;20055;-87
2021/05/07 13:37:52;;;;;;;3.53;1.20;;;15.90;96.40;;;;;;4937949;29;20095;-88
2021/05/07 13:40:21;;;;;;;4.43;1.50;;;15.80;97.00;;;;;;4938571;29;20118;-90
2021/05/07 13:42:57;;;;;;;3.03;1.20;;;15.80;97.80;;;;;;4937656;29;20050;-87
2021/05/07 13:45:24;;;;;;;3.63;0.98;;;15.70;98.00;;;;;;4938356;29;20060;-88
2021/05/07 13:47:50;;;;;;;5.43;1.20;;;15.60;98.30;;;;;;4938678;29;20066;-87
2021/05/07 13:50:37;;;;;;;3.10;1.10;;;15.50;98.50;;;;;;4937416;29;20115;-86
2021/05/07 13:53:03;;;;;;;3.53;1.10;;;15.40;98.70;;;;;;4934011;29;20525;-84
2021/05/07 13:55:30;;;;;;;2.78;1.10;;;15.30;98.80;;;;;;4939227;29;20040;-86
2021/05/07 13:57:56;;;;;;;2.25;1.13;;;15.20;99.10;;;;;;4937376;29;20095;-84
2021/05/07 14:00:23;;;;;;;2.97;1.20;;;15.20;99.40;;;;;;4937995;29;20103;-87
2021/05/07 14:02:49;;;;;;;2.72;1.08;;;15.10;99.70;;;;;;4937271;29;20055;-86
2021/05/07 14:05:16;;;;;;;2.08;1.05;;;14.90;99.90;;;;;;4934023;29;20052;-85
2021/05/07 14:07:42;;;;;;;3.78;1.65;;;14.80;99.90;;;;;;4939411;29;20044;-88
2021/05/07 14:10:09;;;;;;;1.63;1.02;;;14.80;99.90;;;;;;4935471;29;20107;-85
2021/05/07 14:12:35;;;;;;;2.70;1.05;;;14.70;99.90;;;;;;4936964;29;20090;-86
2021/05/07 14:15:03;;;;;;;3.03;1.05;;;14.60;99.90;;;;;;4936896;29;20057;-87
2021/05/07 14:17:29;;;;;;;1.75;1.00;;;14.50;99.90;;;;;;4935603;29;20044;-83
2021/05/07 14:19:56;;;;;;;2.55;0.85;;;14.40;99.90;;;;;;4934593;29;20518;-87
2021/05/07 14:22:22;;;;;;;3.22;1.00;;;14.30;99.90;;;;;;4936402;29;20051;-85
2021/05/07 14:24:49;;;;;;;2.60;1.30;;;14.30;99.90;;;;;;4937817;29;20087;-87
2021/05/07 14:27:15;;;;;;;1.73;0.95;;;14.30;99.90;;;;;;4937500;29;20060;-86
2021/05/07 14:29:42;;;;;;;2.10;1.30;;;14.30;99.90;;;;;;4937536;29;20529;-84
2021/05/07 14:32:09;;;;;;;2.03;1.40;;;14.20;99.90;;;;;;4930987;29;20052;-85
2021/05/07 14:34:35;;;;;;;2.03;1.30;;;14.20;99.90;;;;;;4939529;29;20462;-86
2021/05/07 14:37:02;;;;;;;2.25;1.30;;;14.00;99.90;;;;;;4936584;29;20056;-87
2021/05/07 14:39:28;;;;;;;3.05;1.30;;;14.00;99.90;;;;;;4936742;29;20047;-87
2021/05/07 14:41:55;;;;;;;3.22;1.20;;;13.90;99.90;;;;;;4937084;29;20102;-84
2021/05/07 14:44:21;;;;;;;2.97;1.23;;;13.80;99.90;;;;;;4932926;29;20478;-86
2021/05/07 14:46:47;;;;;;;1.70;0.70;;;13.70;99.90;;;;;;4938181;29;20051;-86
2021/05/07 14:49:14;;;;;;;2.05;0.90;;;13.70;99.90;;;;;;4937739;29;20084;-86
2021/05/07 14:51:40;;;;;;;1.80;1.00;;;13.70;99.90;;;;;;4936418;29;20048;-85
2021/05/07 14:54:07;;;;;;;2.63;0.98;;;13.60;99.90;;;;;;4937146;29;20103;-86
2021/05/07 14:56:33;;;;;;;3.53;1.00;;;13.60;99.90;;;;;;4934596;29;20058;-86
2021/05/07 14:59:00;;;;;;;2.45;0.95;;;13.50;99.90;;;;;;4933693;29;20102;-87
2021/05/07 15:01:26;;;;;;;2.60;0.90;;;13.50;99.90;;;;;;4937735;29;20442;-86
2021/05/07 15:03:52;;;;;;;2.28;0.90;;;13.50;99.90;;;;;;4936234;29;20052;-83
2021/05/07 15:06:21;;;;;;;2.55;1.13;;;13.50;99.90;;;;;;4935633;29;20056;-86
2021/05/07 15:08:47;;;;;;;5.88;1.30;;;13.50;99.90;;;;;;4936206;29;20050;-86
2021/05/07 15:11:14;;;;;;;2.15;1.08;;;13.50;99.90;;;;;;4930453;29;20083;-87
2021/05/07 15:13:40;;;;;;;0.80;0.70;;;13.50;99.90;;;;;;4939090;29;20048;-86
2021/05/07 15:16:06;;;;;;;1.77;0.80;;;13.50;99.90;;;;;;4936818;29;20055;-86
2021/05/07 15:18:33;;;;;;;2.70;0.70;;;13.50;99.90;;;;;;4935684;29;20522;-87
2021/05/07 15:20:59;;;;;;;4.30;0.98;;;13.50;99.90;;;;;;4933235;29;20044;-87
2021/05/07 15:23:26;;;;;;;5.45;1.08;;;13.50;99.90;;;;;;4931173;29;20142;-88
2021/05/07 15:25:52;;;;;;;1.77;0.70;;;13.60;99.90;;;;;;4933841;29;20043;-87
2021/05/07 15:28:18;;;;;;;3.45;1.15;;;13.60;99.90;;;;;;4939770;29;20577;-87
2021/05/07 15:30:45;;;;;;;6.07;1.27;;;13.60;99.90;;;;;;4943879;28;20059;-86
2021/05/07 15:33:11;;;;;;;3.30;1.20;;;13.60;99.90;;;;;;4924164;29;20104;-86
2021/05/07 15:35:38;;;;;;;2.80;0.80;;;13.60;99.90;;;;;;4929646;29;20111;-85
2021/05/07 15:38:06;;;;;;;3.50;0.90;;;13.60;99.90;;;;;;4922489;29;20044;-86
2021/05/07 15:40:33;;;;;;;3.53;1.00;;;13.60;99.90;;;;;;4915172;29;20083;-87
2021/05/07 15:42:59;;;;;;;2.60;0.90;;;13.50;99.90;;;;;;4918203;29;20071;-87
2021/05/07 15:45:26;;;;;;;2.90;1.10;;;13.50;99.90;;;;;;4914413;29;20056;-88
2021/05/07 15:47:52;;;;;;;5.72;1.10;;;13.50;99.90;;;;;;4914024;29;20107;-87
2021/05/07 15:50:20;;;;;;;5.28;1.38;;;13.40;99.90;;;;;;4921735;29;20106;-86
2021/05/07 15:52:46;;;;;;;3.50;1.35;;;13.40;99.90;;;;;;4922651;29;20134;-86
2021/05/07 15:55:13;;;;;;;3.67;1.50;;;13.40;99.90;;;;;;4923822;29;20060;-83
2021/05/07 15:57:39;;;;;;;4.25;1.10;;;13.30;99.90;;;;;;4924100;29;20570;-84
2021/05/07 16:00:07;;;;;;;4.60;1.33;;;13.30;99.90;;;;;;4924048;29;20073;-86
2021/05/07 16:02:35;;;;;;;3.15;1.30;;;13.20;99.90;;;;;;4921988;29;20099;-86
2021/05/07 16:05:06;;;;;;;3.25;1.40;;;13.10;99.90;;;;;;4923340;29;20071;-87
2021/05/07 16:07:36;;;;;;;6.68;1.85;;;13.00;99.90;;;;;;4922577;29;20408;-83
2021/05/07 16:10:03;;;;;;;4.45;1.70;;;13.00;99.90;;;;;;4924352;29;20510;-84
2021/05/07 16:12:30;;;;;;;9.32;1.70;;;13.00;99.90;;;;;;4923549;29;20052;-84
2021/05/07 16:14:57;;;;;;;6.10;2.10;;;12.90;99.90;;;;;;4928465;29;20052;-82
2021/05/07 16:17:26;;;;;;;14.10;2.35;;;12.80;99.90;;;;;;4925351;29;20143;-84
2021/05/07 16:19:54;;;;;;;7.03;1.67;;;12.80;99.90;;;;;;4926465;29;20055;-83
2021/05/07 16:22:35;;;;;;;5.95;1.90;;;12.80;99.90;;;;;;4922735;29;20137;-83
2021/05/07 16:25:02;;;;;;;3.30;1.92;;;12.70;99.90;;;;;;4925718;29;20051;-83
2021/05/07 16:27:29;;;;;;;38.47;3.58;;;12.70;99.90;;;;;;4917247;29;20036;-81
2021/05/07 16:29:55;;;;;;;17.25;2.67;;;12.70;99.90;;;;;;4921628;29;20055;-85
2021/05/07 16:32:22;;;;;;;9.27;2.58;;;12.60;99.90;;;;;;4915724;29;20178;-83
2021/05/07 16:34:51;;;;;;;11.40;4.10;;;12.60;99.90;;;;;;4922441;29;20059;-83
2021/05/07 16:37:23;;;;;;;26.45;3.78;;;12.50;99.90;;;;;;4916704;29;20415;-81
2021/05/07 16:39:50;;;;;;;15.73;4.10;;;12.50;99.90;;;;;;4934749;29;20047;-83
2021/05/07 16:42:17;;;;;;;10.70;4.25;;;12.40;99.90;;;;;;4930036;29;20522;-82
2021/05/07 16:44:44;;;;;;;11.48;3.70;;;12.40;99.90;;;;;;4928366;29;20115;-83
2021/05/07 16:47:11;;;;;;;15.45;4.63;;;12.40;99.90;;;;;;4924586;29;20063;-82
2021/05/07 16:49:38;;;;;;;9.77;3.50;;;12.40;99.90;;;;;;4918615;29;20419;-82
2021/05/07 16:52:05;;;;;;;11.70;3.38;;;12.40;99.90;;;;;;4921941;29;20052;-82
2021/05/07 16:54:32;;;;;;;13.65;2.70;;;12.40;99.90;;;;;;4922437;29;20071;-81
2021/05/07 16:56:58;;;;;;;7.15;3.83;;;12.30;99.90;;;;;;4921377;28;20060;-83
2021/05/07 16:59:25;;;;;;;8.52;3.13;;;12.30;99.90;;;;;;4917765;29;20090;-83
2021/05/07 17:01:51;;;;;;;7.10;2.30;;;12.30;99.90;;;;;;4920135;29;20472;-83
2021/05/07 17:04:18;;;;;;;9.35;2.97;;;12.30;99.90;;;;;;4916122;29;20056;-82
2021/05/07 17:06:44;;;;;;;9.52;2.70;;;12.30;99.90;;;;;;4922664;29;20056;-83
2021/05/07 17:09:10;;;;;;;5.38;2.35;;;12.30;99.90;;;;;;4917436;29;20092;-82
2021/05/07 17:11:37;;;;;;;5.55;2.97;;;12.30;99.90;;;;;;4917023;29;20055;-81
2021/05/07 17:14:03;;;;;;;5.07;3.33;;;12.30;99.90;;;;;;4912260;29;20106;-82
2021/05/07 17:16:30;;;;;;;7.10;2.42;;;12.30;99.90;;;;;;4916425;29;20063;-80
2021/05/07 17:19:00;;;;;;;8.90;2.78;;;12.30;99.90;;;;;;4910859;29;20060;-82
2021/05/07 17:21:27;;;;;;;6.93;2.05;;;12.30;99.90;;;;;;4914012;29;20051;-82
2021/05/07 17:23:54;;;;;;;6.75;2.78;;;12.30;99.90;;;;;;4916151;29;20083;-82
2021/05/07 17:26:25;;;;;;;5.60;2.05;;;12.30;99.90;;;;;;4895858;29;21073;-82
2021/05/07 17:28:53;;;;;;;4.82;2.35;;;12.30;99.90;;;;;;4908968;29;20059;-81
2021/05/07 17:31:20;;;;;;;6.95;1.92;;;12.20;99.90;;;;;;4914559;29;20116;-81
2021/05/07 17:33:47;;;;;;;8.52;2.38;;;12.20;99.90;;;;;;4913683;29;20056;-82
2021/05/07 17:36:13;;;;;;;11.23;2.55;;;12.10;99.90;;;;;;4912836;29;20060;-82
2021/05/07 17:38:39;;;;;;;6.88;2.20;;;12.10;99.90;;;;;;4913980;29;20056;-83
2021/05/07 17:41:06;;;;;;;5.18;2.30;;;12.10;99.90;;;;;;4912289;29;20119;-82
2021/05/07 17:43:33;;;;;;;6.05;2.95;;;12.10;99.90;;;;;;4913072;29;20515;-81
2021/05/07 17:45:59;;;;;;;4.10;2.65;;;12.10;99.90;;;;;;4914885;29;20056;-82
2021/05/07 17:48:26;;;;;;;7.32;3.03;;;12.20;99.90;;;;;;4915902;29;20048;-82
2021/05/07 17:50:52;;;;;;;7.43;4.22;;;12.10;99.90;;;;;;4914946;29;20463;-82
2021/05/07 17:53:18;;;;;;;4.70;2.83;;;12.10;99.90;;;;;;4913883;29;20055;-82
2021/05/07 17:55:45;;;;;;;6.22;2.78;;;12.10;99.90;;;;;;4913741;29;20499;-82
2021/05/07 17:58:11;;;;;;;7.80;3.30;;;12.10;99.90;;;;;;4912269;29;20056;-84
2021/05/07 18:00:43;;;;;;;5.63;2.40;;;12.10;99.90;;;;;;4925430;29;20058;-83
2021/05/07 18:03:09;;;;;;;7.47;2.67;;;12.10;99.90;;;;;;4914711;28;20051;-80
2021/05/07 18:05:36;;;;;;;5.45;2.70;;;12.10;99.90;;;;;;4910823;29;20048;-81
2021/05/07 18:08:03;;;;;;;6.10;2.53;;;12.10;99.90;;;;;;4917451;29;20111;-79
2021/05/07 18:10:29;;;;;;;5.65;2.63;;;12.10;99.90;;;;;;4922892;29;20040;-82
2021/05/07 18:12:56;;;;;;;4.22;2.05;;;12.10;99.90;;;;;;4928388;29;20104;-80
2021/05/07 18:15:22;;;;;;;2.97;1.95;;;12.00;99.90;;;;;;4924146;29;20067;-81
2021/05/07 18:17:49;;;;;;;2.42;1.92;;;12.00;99.90;;;;;;4915019;29;20052;-80
2021/05/07 18:20:16;;;;;;;2.03;1.55;;;12.00;99.90;;;;;;4917867;29;20055;-80
2021/05/07 18:22:44;;;;;;;2.95;1.42;;;12.00;99.90;;;;;;4920080;29;20048;-81
2021/05/07 18:25:12;;;;;;;3.63;1.80;;;12.00;99.90;;;;;;4924499;29;20040;-81
2021/05/07 18:27:38;;;;;;;2.73;1.40;;;12.00;99.90;;;;;;4918654;29;20499;-81
2021/05/07 18:30:06;;;;;;;2.85;1.00;;;12.00;99.90;;;;;;4913961;29;20488;-81
2021/05/07 18:32:32;;;;;;;3.28;1.95;;;12.00;99.90;;;;;;4914190;29;20052;-79
2021/05/07 18:35:11;;;;;;;4.60;1.83;;;12.00;99.90;;;;;;4928640;29;20052;-80
2021/05/07 18:37:37;;;;;;;2.25;1.73;;;12.00;99.90;;;;;;4926248;29;20055;-82
2021/05/07 18:40:08;;;;;;;3.63;1.85;;;12.00;99.90;;;;;;4926311;29;20055;-82
2021/05/07 18:42:35;;;;;;;5.88;2.38;;;12.00;99.90;;;;;;4920768;29;20054;-83
2021/05/07 18:45:03;;;;;;;3.75;2.33;;;12.00;99.90;;;;;;4925546;29;20052;-82
2021/05/07 18:47:30;;;;;;;4.20;2.20;;;12.00;99.90;;;;;;4919231;29;20067;-81
2021/05/07 18:50:01;;;;;;;6.57;2.45;;;12.00;99.90;;;;;;4925812;29;20103;-79
2021/05/07 18:52:29;;;;;;;6.03;2.30;;;12.00;99.90;;;;;;4926833;29;20553;-82
2021/05/07 18:54:58;;;;;;;8.57;4.57;;;11.90;99.90;;;;;;4920829;29;20051;-81
2021/05/07 18:57:24;;;;;;;5.45;3.15;;;11.90;99.90;;;;;;4923758;29;20074;-81
2021/05/07 18:59:51;;;;;;;7.30;3.33;;;11.90;99.90;;;;;;4916262;29;20055;-82
2021/05/07 19:02:17;;;;;;;2.47;1.58;;;11.90;99.90;;;;;;4911636;29;20154;-82
2021/05/07 19:04:44;;;;;;;2.42;1.48;;;11.90;99.90;;;;;;4923073;29;20055;-82
2021/05/07 19:07:11;;;;;;;2.38;1.63;;;11.90;99.90;;;;;;4919916;29;20169;-83
2021/05/07 19:09:38;;;;;;;3.10;1.70;;;11.90;99.90;;;;;;4915246;29;20058;-81
2021/05/07 19:12:04;;;;;;;5.10;1.75;;;11.90;99.90;;;;;;4923750;29;20095;-82
2021/05/07 19:14:31;;;;;;;4.53;1.90;;;11.90;99.90;;;;;;4925693;29;20454;-81
2021/05/07 19:17:05;;;;;;;3.08;1.75;;;11.90;99.90;;;;;;4921226;29;20136;-81
2021/05/07 19:19:32;;;;;;;3.28;2.97;;;11.90;99.90;;;;;;4922828;29;20055;-80
2021/05/07 19:21:59;;;;;;;3.55;1.70;;;11.90;99.90;;;;;;4918914;29;20048;-82
2021/05/07 19:24:27;;;;;;;4.53;1.30;;;11.90;99.90;;;;;;4914742;29;20051;-82
2021/05/07 19:26:55;;;;;;;3.87;1.43;;;11.90;99.90;;;;;;4913974;29;20052;-83
2021/05/07 19:29:22;;;;;;;4.43;1.70;;;11.90;99.90;;;;;;4914124;28;20690;-80
2021/05/07 19:31:50;;;;;;;5.05;1.77;;;11.90;99.90;;;;;;4918246;29;20059;-82
2021/05/07 19:34:17;;;;;;;3.13;1.80;;;11.90;99.90;;;;;;4921750;29;20422;-82
2021/05/07 19:36:43;;;;;;;3.72;1.50;;;11.90;99.90;;;;;;4931699;28;20084;-82
2021/05/07 19:39:10;;;;;;;2.95;1.35;;;11.90;99.90;;;;;;4915431;29;20586;-83
2021/05/07 19:41:37;;;;;;;2.38;1.25;;;11.90;99.90;;;;;;4917079;29;20051;-82
2021/05/07 19:44:18;;;;;;;4.30;1.63;;;11.90;99.90;;;;;;4915854;29;20376;-81
2021/05/07 19:46:45;;;;;;;5.57;2.08;;;11.90;99.90;;;;;;4917181;29;20103;-82
2021/05/07 19:49:12;;;;;;;5.43;1.70;;;12.00;99.90;;;;;;4918739;29;20068;-83
2021/05/07 19:51:38;;;;;;;3.53;1.98;;;12.00;99.90;;;;;;4912991;29;20071;-83
2021/05/07 19:54:05;;;;;;;6.57;2.20;;;12.00;99.90;;;;;;4916498;29;20111;-82
2021/05/07 19:56:32;;;;;;;5.57;2.80;;;12.00;99.90;;;;;;4924947;29;20436;-82
2021/05/07 19:58:58;;;;;;;4.63;2.08;;;12.00;99.90;;;;;;4917291;29;20084;-82
2021/05/07 20:01:25;;;;;;;7.82;2.20;;;12.00;99.90;;;;;;4918836;29;20127;-81
2021/05/07 20:03:52;;;;;;;5.03;1.95;;;12.00;99.90;;;;;;4915562;29;20048;-82
2021/05/07 20:06:19;;;;;;;5.78;2.50;;;12.00;99.90;;;;;;4912098;29;20044;-82
2021/05/07 20:09:06;;;;;;;11.07;2.05;;;12.00;99.90;;;;;;4911233;29;20052;-83
2021/05/07 20:11:33;;;;;;;5.30;1.48;;;12.00;99.90;;;;;;4920574;29;20408;-82
2021/05/07 20:13:59;;;;;;;50.58;3.35;;;12.00;99.90;;;;;;4920854;29;20056;-82
2021/05/07 20:16:26;;;;;;;58.75;3.67;;;12.00;99.90;;;;;;4920779;29;20107;-82
2021/05/07 20:18:54;;;;;;;94.63;4.15;;;12.10;99.90;;;;;;4919927;29;20048;-83
2021/05/07 20:21:21;;;;;;;99.78;4.68;;;12.10;99.90;;;;;;4915958;29;20060;-82
2021/05/07 20:23:48;;;;;;;124.22;5.45;;;12.10;99.90;;;;;;4918331;29;20059;-83